sensor_id;sensor_type;location;lat;lon;timestamp;pressure;altitude;pressure_sealevel;temperature;humidity
62617;BME280;62539;51.190;6.808;2023-03-03T00:00:49;101931.88;;;20.08;45.60
62617;BME280;62539;51.190;6.808;2023-03-03T00:03:20;101931.16;;;20.01;45.62
62617;BME280;62539;51.190;6.808;2023-03-03T00:05:47;101921.63;;;19.95;46.01
62617;BME280;62539;51.190;6.808;2023-03-03T00:08:13;101929.63;;;19.91;45.96
62617;BME280;62539;51.190;6.808;2023-03-03T00:10:39;101933.19;;;19.87;46.10
62617;BME280;62539;51.190;6.808;2023-03-03T00:13:13;101924.53;;;19.81;46.14
62617;BME280;62539;51.190;6.808;2023-03-03T00:15:50;101932.50;;;19.77;46.34
62617;BME280;62539;51.190;6.808;2023-03-03T00:18:30;101923.81;;;19.73;46.34
62617;BME280;62539;51.190;6.808;2023-03-03T00:21:00;101933.53;;;19.69;46.51
62617;BME280;62539;51.190;6.808;2023-03-03T00:23:39;101935.38;;;19.66;46.49
62617;BME280;62539;51.190;6.808;2023-03-03T00:26:42;101935.50;;;19.60;46.58
62617;BME280;62539;51.190;6.808;2023-03-03T00:29:01;101945.28;;;19.53;46.75
62617;BME280;62539;51.190;6.808;2023-03-03T00:31:44;101946.28;;;19.47;46.85
62617;BME280;62539;51.190;6.808;2023-03-03T00:34:26;101941.94;;;19.45;47.15
62617;BME280;62539;51.190;6.808;2023-03-03T00:36:54;101953.41;;;19.42;47.20
62617;BME280;62539;51.190;6.808;2023-03-03T00:39:32;101942.06;;;19.38;47.16
62617;BME280;62539;51.190;6.808;2023-03-03T00:42:00;101948.25;;;19.36;47.15
62617;BME280;62539;51.190;6.808;2023-03-03T00:44:41;101945.69;;;19.33;47.11
62617;BME280;62539;51.190;6.808;2023-03-03T00:47:30;101949.22;;;19.30;47.51
62617;BME280;62539;51.190;6.808;2023-03-03T00:52:34;101958.06;;;19.26;47.31
62617;BME280;62539;51.190;6.808;2023-03-03T00:55:03;101955.50;;;19.23;47.30
62617;BME280;62539;51.190;6.808;2023-03-03T00:57:29;101943.28;;;19.20;47.62
62617;BME280;62539;51.190;6.808;2023-03-03T00:59:55;101952.09;;;19.18;47.49
62617;BME280;62539;51.190;6.808;2023-03-03T01:02:21;101957.34;;;19.18;47.38
62617;BME280;62539;51.190;6.808;2023-03-03T01:04:49;101963.50;;;19.17;47.45
62617;BME280;62539;51.190;6.808;2023-03-03T01:07:17;101967.03;;;19.16;47.52
62617;BME280;62539;51.190;6.808;2023-03-03T01:09:43;101968.81;;;19.14;47.63
62617;BME280;62539;51.190;6.808;2023-03-03T01:12:09;101972.34;;;19.13;47.56
62617;BME280;62539;51.190;6.808;2023-03-03T01:14:35;101982.03;;;19.10;47.73
62617;BME280;62539;51.190;6.808;2023-03-03T01:17:02;101981.19;;;19.08;47.77
62617;BME280;62539;51.190;6.808;2023-03-03T01:19:27;101974.19;;;19.07;47.86
62617;BME280;62539;51.190;6.808;2023-03-03T01:21:53;101970.72;;;19.05;47.65
62617;BME280;62539;51.190;6.808;2023-03-03T01:24:19;101976.88;;;19.04;47.72
62617;BME280;62539;51.190;6.808;2023-03-03T01:26:45;101981.28;;;19.02;47.76
62617;BME280;62539;51.190;6.808;2023-03-03T01:29:11;101973.41;;;19.02;47.76
62617;BME280;62539;51.190;6.808;2023-03-03T01:31:36;101977.81;;;19.00;47.77
62617;BME280;62539;51.190;6.808;2023-03-03T01:34:02;101983.97;;;18.99;47.69
62617;BME280;62539;51.190;6.808;2023-03-03T01:36:28;101977.88;;;18.97;47.67
62617;BME280;62539;51.190;6.808;2023-03-03T01:38:54;101982.25;;;18.95;47.80
62617;BME280;62539;51.190;6.808;2023-03-03T01:41:19;101982.28;;;18.93;47.85
62617;BME280;62539;51.190;6.808;2023-03-03T01:43:48;101984.94;;;18.93;47.82
62617;BME280;62539;51.190;6.808;2023-03-03T01:46:28;101978.84;;;18.90;47.75
62617;BME280;62539;51.190;6.808;2023-03-03T01:49:02;101979.72;;;18.89;47.92
62617;BME280;62539;51.190;6.808;2023-03-03T01:51:45;101984.13;;;18.87;47.69
62617;BME280;62539;51.190;6.808;2023-03-03T01:54:21;101979.78;;;18.86;48.02
62617;BME280;62539;51.190;6.808;2023-03-03T01:56:56;101979.81;;;18.84;47.82
62617;BME280;62539;51.190;6.808;2023-03-03T01:59:28;101985.09;;;18.83;47.98
62617;BME280;62539;51.190;6.808;2023-03-03T02:01:58;101976.34;;;18.80;48.06
62617;BME280;62539;51.190;6.808;2023-03-03T02:04:24;101978.13;;;18.78;48.13
62617;BME280;62539;51.190;6.808;2023-03-03T02:06:54;101979.94;;;18.76;47.97
62617;BME280;62539;51.190;6.808;2023-03-03T02:12:13;101975.59;;;18.72;47.98
62617;BME280;62539;51.190;6.808;2023-03-03T02:14:42;101976.56;;;18.68;47.95
62617;BME280;62539;51.190;6.808;2023-03-03T02:17:07;101984.50;;;18.65;48.23
62617;BME280;62539;51.190;6.808;2023-03-03T02:19:47;101965.25;;;18.64;48.04
62617;BME280;62539;51.190;6.808;2023-03-03T02:22:50;101979.28;;;18.62;48.47
62617;BME280;62539;51.190;6.808;2023-03-03T02:25:30;101981.91;;;18.62;48.42
62617;BME280;62539;51.190;6.808;2023-03-03T02:28:03;101975.78;;;18.61;48.20
62617;BME280;62539;51.190;6.808;2023-03-03T02:30:28;101981.94;;;18.59;48.26
62617;BME280;62539;51.190;6.808;2023-03-03T02:32:54;101989.84;;;18.59;48.46
62617;BME280;62539;51.190;6.808;2023-03-03T02:35:31;101981.94;;;18.59;48.52
62617;BME280;62539;51.190;6.808;2023-03-03T02:38:05;101981.94;;;18.59;48.40
62617;BME280;62539;51.190;6.808;2023-03-03T02:40:35;101978.47;;;18.57;48.47
62617;BME280;62539;51.190;6.808;2023-03-03T02:43:05;101991.66;;;18.55;48.57
62617;BME280;62539;51.190;6.808;2023-03-03T02:45:32;101991.66;;;18.55;48.41
62617;BME280;62539;51.190;6.808;2023-03-03T02:47:57;101989.06;;;18.54;48.43
62617;BME280;62539;51.190;6.808;2023-03-03T02:50:23;101983.81;;;18.54;48.52
62617;BME280;62539;51.190;6.808;2023-03-03T02:52:48;101982.06;;;18.53;48.55
62617;BME280;62539;51.190;6.808;2023-03-03T02:55:14;101991.75;;;18.50;48.52
62617;BME280;62539;51.190;6.808;2023-03-03T02:57:39;101987.38;;;18.49;48.70
62617;BME280;62539;51.190;6.808;2023-03-03T03:00:05;101983.91;;;18.47;48.84
62617;BME280;62539;51.190;6.808;2023-03-03T03:02:31;101982.16;;;18.46;48.69
62617;BME280;62539;51.190;6.808;2023-03-03T03:04:56;101989.16;;;18.46;48.57
62617;BME280;62539;51.190;6.808;2023-03-03T03:07:22;101994.47;;;18.44;48.67
62617;BME280;62539;51.190;6.808;2023-03-03T03:09:47;101997.09;;;18.44;48.70
62617;BME280;62539;51.190;6.808;2023-03-03T03:12:14;101998.88;;;18.42;48.76
62617;BME280;62539;51.190;6.808;2023-03-03T03:14:40;102005.00;;;18.41;48.82
62617;BME280;62539;51.190;6.808;2023-03-03T03:17:05;102005.88;;;18.42;48.68
62617;BME280;62539;51.190;6.808;2023-03-03T03:19:31;102003.28;;;18.40;48.85
62617;BME280;62539;51.190;6.808;2023-03-03T03:21:56;102006.78;;;18.39;48.71
62617;BME280;62539;51.190;6.808;2023-03-03T03:24:22;102015.56;;;18.38;48.77
62617;BME280;62539;51.190;6.808;2023-03-03T03:26:47;102010.34;;;18.35;48.67
62617;BME280;62539;51.190;6.808;2023-03-03T03:29:12;102013.00;;;18.33;48.64
62617;BME280;62539;51.190;6.808;2023-03-03T03:31:38;102013.91;;;18.31;48.80
62617;BME280;62539;51.190;6.808;2023-03-03T03:34:03;102004.28;;;18.30;48.84
62617;BME280;62539;51.190;6.808;2023-03-03T03:36:29;102004.31;;;18.28;48.83
62617;BME280;62539;51.190;6.808;2023-03-03T03:38:54;101992.09;;;18.26;48.88
62617;BME280;62539;51.190;6.808;2023-03-03T03:41:20;102006.13;;;18.25;48.92
62617;BME280;62539;51.190;6.808;2023-03-03T03:43:45;102011.38;;;18.23;48.89
62617;BME280;62539;51.190;6.808;2023-03-03T03:46:11;102011.41;;;18.21;49.14
62617;BME280;62539;51.190;6.808;2023-03-03T03:48:37;102014.94;;;18.20;48.84
62617;BME280;62539;51.190;6.808;2023-03-03T03:51:02;102011.44;;;18.18;49.15
62617;BME280;62539;51.190;6.808;2023-03-03T03:53:28;102001.81;;;18.19;49.03
62617;BME280;62539;51.190;6.808;2023-03-03T03:55:54;102004.47;;;18.17;49.05
62617;BME280;62539;51.190;6.808;2023-03-03T03:58:19;101999.22;;;18.17;49.00
62617;BME280;62539;51.190;6.808;2023-03-03T04:00:45;102011.44;;;18.18;48.75
62617;BME280;62539;51.190;6.808;2023-03-03T04:03:11;102008.81;;;18.18;48.90
62617;BME280;62539;51.190;6.808;2023-03-03T04:05:38;102015.78;;;18.23;48.73
62617;BME280;62539;51.190;6.808;2023-03-03T04:08:04;102003.44;;;18.28;48.83
62617;BME280;62539;51.190;6.808;2023-03-03T04:10:30;101997.22;;;18.33;48.72
62617;BME280;62539;51.190;6.808;2023-03-03T04:12:55;102000.63;;;18.42;48.59
62617;BME280;62539;51.190;6.808;2023-03-03T04:15:21;101998.75;;;18.50;48.65
62617;BME280;62539;51.190;6.808;2023-03-03T04:17:46;101995.13;;;18.57;48.32
62617;BME280;62539;51.190;6.808;2023-03-03T04:20:13;102004.63;;;18.66;48.07
62617;BME280;62539;51.190;6.808;2023-03-03T04:22:40;102003.63;;;18.73;48.14
62617;BME280;62539;51.190;6.808;2023-03-03T04:25:08;102002.69;;;18.77;48.00
62617;BME280;62539;51.190;6.808;2023-03-03T04:27:36;102006.16;;;18.81;47.75
62617;BME280;62539;51.190;6.808;2023-03-03T04:30:03;102017.53;;;18.83;47.70
62617;BME280;62539;51.190;6.808;2023-03-03T04:32:30;102017.47;;;18.85;47.35
62617;BME280;62539;51.190;6.808;2023-03-03T04:34:58;102020.09;;;18.85;47.35
62617;BME280;62539;51.190;6.808;2023-03-03T04:37:23;102011.31;;;18.87;47.51
62617;BME280;62539;51.190;6.808;2023-03-03T04:39:49;102005.97;;;18.92;47.62
62617;BME280;62539;51.190;6.808;2023-03-03T04:42:14;102014.53;;;19.06;47.26
62617;BME280;62539;51.190;6.808;2023-03-03T04:44:40;102012.53;;;19.21;47.17
62617;BME280;62539;51.190;6.808;2023-03-03T04:47:05;102017.47;;;19.39;46.81
62617;BME280;62539;51.190;6.808;2023-03-03T04:49:30;102020.63;;;19.59;46.44
62617;BME280;62539;51.190;6.808;2023-03-03T04:51:56;102022.03;;;19.77;46.06
62617;BME280;62539;51.190;6.808;2023-03-03T04:54:22;102027.00;;;19.94;45.84
62617;BME280;62539;51.190;6.808;2023-03-03T04:56:47;102020.53;;;20.09;45.23
62617;BME280;62539;51.190;6.808;2023-03-03T04:59:13;102025.53;;;20.23;44.90
62617;BME280;62539;51.190;6.808;2023-03-03T05:01:39;102029.56;;;20.38;44.67
62617;BME280;62539;51.190;6.808;2023-03-03T05:04:05;102025.75;;;20.51;44.49
62617;BME280;62539;51.190;6.808;2023-03-03T05:06:30;102028.13;;;20.64;43.99
62617;BME280;62539;51.190;6.808;2023-03-03T05:08:56;102027.00;;;20.74;43.94
62617;BME280;62539;51.190;6.808;2023-03-03T05:11:21;102033.88;;;20.81;43.68
62617;BME280;62539;51.190;6.808;2023-03-03T05:13:46;102038.09;;;20.90;43.51
62617;BME280;62539;51.190;6.808;2023-03-03T05:16:12;102039.69;;;20.97;43.47
62617;BME280;62539;51.190;6.808;2023-03-03T05:18:37;102028.91;;;21.05;43.33
62617;BME280;62539;51.190;6.808;2023-03-03T05:21:03;102028.81;;;21.10;43.23
62617;BME280;62539;51.190;6.808;2023-03-03T05:23:29;102030.41;;;21.17;42.92
62617;BME280;62539;51.190;6.808;2023-03-03T05:25:55;102037.28;;;21.23;42.90
62617;BME280;62539;51.190;6.808;2023-03-03T05:28:21;102041.47;;;21.30;42.79
62617;BME280;62539;51.190;6.808;2023-03-03T05:30:47;102036.06;;;21.35;42.59
62617;BME280;62539;51.190;6.808;2023-03-03T05:33:14;102036.88;;;21.38;42.63
62617;BME280;62539;51.190;6.808;2023-03-03T05:35:41;102049.16;;;21.39;42.54
62617;BME280;62539;51.190;6.808;2023-03-03T05:38:07;102032.50;;;21.37;42.30
62617;BME280;62539;51.190;6.808;2023-03-03T05:40:32;102032.56;;;21.34;42.51
62617;BME280;62539;51.190;6.808;2023-03-03T05:42:58;102037.81;;;21.36;42.80
62617;BME280;62539;51.190;6.808;2023-03-03T05:45:23;102040.44;;;21.36;42.57
62617;BME280;62539;51.190;6.808;2023-03-03T05:47:50;102045.72;;;21.36;42.74
62617;BME280;62539;51.190;6.808;2023-03-03T05:50:17;102043.06;;;21.37;42.36
62617;BME280;62539;51.190;6.808;2023-03-03T05:52:47;102048.28;;;21.39;42.57
62617;BME280;62539;51.190;6.808;2023-03-03T05:55:13;102046.53;;;21.39;42.49
62617;BME280;62539;51.190;6.808;2023-03-03T05:57:39;102040.41;;;21.37;42.55
62617;BME280;62539;51.190;6.808;2023-03-03T06:00:05;102041.41;;;21.33;42.63
62617;BME280;62539;51.190;6.808;2023-03-03T06:02:32;102046.75;;;21.30;42.79
62617;BME280;62539;51.190;6.808;2023-03-03T06:04:58;102046.91;;;21.24;42.56
62617;BME280;62539;51.190;6.808;2023-03-03T06:07:24;102051.44;;;21.20;42.67
62617;BME280;62539;51.190;6.808;2023-03-03T06:09:49;102047.97;;;21.18;42.74
62617;BME280;62539;51.190;6.808;2023-03-03T06:12:14;102060.34;;;21.14;42.98
62617;BME280;62539;51.190;6.808;2023-03-03T06:14:40;102064.78;;;21.12;43.11
62617;BME280;62539;51.190;6.808;2023-03-03T06:17:05;102063.06;;;21.11;42.96
62617;BME280;62539;51.190;6.808;2023-03-03T06:19:31;102070.13;;;21.11;42.95
62617;BME280;62539;51.190;6.808;2023-03-03T06:21:56;102078.06;;;21.09;43.08
62617;BME280;62539;51.190;6.808;2023-03-03T06:24:22;102085.97;;;21.09;43.06
62617;BME280;62539;51.190;6.808;2023-03-03T06:26:50;102077.22;;;21.07;43.00
62617;BME280;62539;51.190;6.808;2023-03-03T06:29:16;102085.28;;;21.03;42.95
62617;BME280;62539;51.190;6.808;2023-03-03T06:31:41;102087.09;;;20.99;42.83
62617;BME280;62539;51.190;6.808;2023-03-03T06:34:07;102089.81;;;20.96;43.12
62617;BME280;62539;51.190;6.808;2023-03-03T06:36:33;102086.41;;;20.92;43.00
62617;BME280;62539;51.190;6.808;2023-03-03T06:38:58;102089.06;;;20.91;43.32
62617;BME280;62539;51.190;6.808;2023-03-03T06:41:25;102097.84;;;20.91;43.23
62617;BME280;62539;51.190;6.808;2023-03-03T06:43:50;102094.31;;;20.92;43.38
62617;BME280;62539;51.190;6.808;2023-03-03T06:46:16;102092.50;;;20.94;43.23
62617;BME280;62539;51.190;6.808;2023-03-03T06:48:41;102101.28;;;20.95;43.28
62617;BME280;62539;51.190;6.808;2023-03-03T06:53:48;102112.50;;;21.03;43.42
62617;BME280;62539;51.190;6.808;2023-03-03T06:56:17;102112.44;;;21.06;43.29
62617;BME280;62539;51.190;6.808;2023-03-03T06:58:42;102113.25;;;21.10;43.34
62617;BME280;62539;51.190;6.808;2023-03-03T07:01:16;102114.03;;;21.13;43.16
62617;BME280;62539;51.190;6.808;2023-03-03T07:03:42;102119.16;;;21.20;43.76
62617;BME280;62539;51.190;6.808;2023-03-03T07:06:18;102115.63;;;21.21;43.10
62617;BME280;62539;51.190;6.808;2023-03-03T07:08:49;102125.25;;;21.22;42.20
62617;BME280;62539;51.190;6.808;2023-03-03T07:11:19;102134.13;;;21.19;41.69
62617;BME280;62539;51.190;6.808;2023-03-03T07:13:49;102126.16;;;21.21;42.37
62617;BME280;62539;51.190;6.808;2023-03-03T07:16:16;102123.53;;;21.21;42.61
62617;BME280;62539;51.190;6.808;2023-03-03T07:18:58;102119.16;;;21.20;43.06
62617;BME280;62539;51.190;6.808;2023-03-03T07:21:32;102125.31;;;21.20;42.97
62617;BME280;62539;51.190;6.808;2023-03-03T07:24:00;102126.16;;;21.21;43.43
62617;BME280;62539;51.190;6.808;2023-03-03T07:26:40;102127.97;;;21.20;43.11
62617;BME280;62539;51.190;6.808;2023-03-03T07:31:47;102140.28;;;21.20;43.51
62617;BME280;62539;51.190;6.808;2023-03-03T07:34:20;102145.63;;;21.17;43.89
62617;BME280;62539;51.190;6.808;2023-03-03T07:36:57;102142.16;;;21.14;43.89
62617;BME280;62539;51.190;6.808;2023-03-03T07:39:30;102142.16;;;21.14;44.17
62617;BME280;62539;51.190;6.808;2023-03-03T07:44:44;102143.97;;;21.12;44.31
62617;BME280;62539;51.190;6.808;2023-03-03T07:47:24;102148.47;;;21.07;44.47
62617;BME280;62539;51.190;6.808;2023-03-03T07:50:17;102153.00;;;21.02;44.35
62617;BME280;62539;51.190;6.808;2023-03-03T07:52:56;102159.22;;;20.99;44.50
62617;BME280;62539;51.190;6.808;2023-03-03T07:55:32;102153.06;;;20.99;44.63
62617;BME280;62539;51.190;6.808;2023-03-03T08:03:41;102159.84;;;21.09;44.95
62617;BME280;62539;51.190;6.808;2023-03-03T08:06:30;102161.53;;;21.13;45.00
62617;BME280;62539;51.190;6.808;2023-03-03T08:11:56;102178.75;;;21.28;44.52
62617;BME280;62539;51.190;6.808;2023-03-03T08:14:35;102184.69;;;21.38;44.41
62617;BME280;62539;51.190;6.808;2023-03-03T08:17:32;102181.03;;;21.44;44.39
62617;BME280;62539;51.190;6.808;2023-03-03T08:20:28;102194.06;;;21.52;44.33
62617;BME280;62539;51.190;6.808;2023-03-03T08:22:53;102194.75;;;21.58;44.19
62617;BME280;62539;51.190;6.808;2023-03-03T08:25:18;102197.28;;;21.65;44.17
62617;BME280;62539;51.190;6.808;2023-03-03T08:27:44;102197.25;;;21.66;43.90
62617;BME280;62539;51.190;6.808;2023-03-03T08:30:10;102197.25;;;21.66;43.50
62617;BME280;62539;51.190;6.808;2023-03-03T08:32:35;102200.78;;;21.65;43.43
62617;BME280;62539;51.190;6.808;2023-03-03T08:35:01;102200.78;;;21.65;43.58
62617;BME280;62539;51.190;6.808;2023-03-03T08:37:26;102206.13;;;21.62;43.51
62617;BME280;62539;51.190;6.808;2023-03-03T08:39:52;102197.38;;;21.58;43.23
62617;BME280;62539;51.190;6.808;2023-03-03T08:42:17;102204.53;;;21.55;43.24
62617;BME280;62539;51.190;6.808;2023-03-03T08:44:42;102205.47;;;21.52;43.38
62617;BME280;62539;51.190;6.808;2023-03-03T08:47:08;102199.34;;;21.52;43.21
62617;BME280;62539;51.190;6.808;2023-03-03T08:49:33;102204.69;;;21.49;43.36
62617;BME280;62539;51.190;6.808;2023-03-03T08:51:59;102217.06;;;21.47;43.05
62617;BME280;62539;51.190;6.808;2023-03-03T08:54:25;102213.59;;;21.44;43.13
62617;BME280;62539;51.190;6.808;2023-03-03T08:56:50;102217.19;;;21.40;43.33
62617;BME280;62539;51.190;6.808;2023-03-03T08:59:16;102217.28;;;21.37;43.31
62617;BME280;62539;51.190;6.808;2023-03-03T09:01:41;102222.63;;;21.34;43.18
62617;BME280;62539;51.190;6.808;2023-03-03T09:04:09;102227.97;;;21.31;43.12
62617;BME280;62539;51.190;6.808;2023-03-03T09:06:35;102230.69;;;21.28;43.42
62617;BME280;62539;51.190;6.808;2023-03-03T09:09:00;102231.59;;;21.27;43.43
62617;BME280;62539;51.190;6.808;2023-03-03T09:11:28;102235.13;;;21.26;43.57
62617;BME280;62539;51.190;6.808;2023-03-03T09:14:09;102233.41;;;21.25;43.72
62617;BME280;62539;51.190;6.808;2023-03-03T09:16:39;102241.25;;;21.26;43.44
62617;BME280;62539;51.190;6.808;2023-03-03T09:19:19;102236.88;;;21.27;43.51
62617;BME280;62539;51.190;6.808;2023-03-03T09:21:50;102240.34;;;21.29;43.72
62617;BME280;62539;51.190;6.808;2023-03-03T09:24:29;102229.78;;;21.29;43.49
62617;BME280;62539;51.190;6.808;2023-03-03T09:26:56;102245.56;;;21.30;43.52
62617;BME280;62539;51.190;6.808;2023-03-03T09:29:27;102240.34;;;21.29;43.42
62617;BME280;62539;51.190;6.808;2023-03-03T09:34:48;102250.97;;;21.26;43.50
62617;BME280;62539;51.190;6.808;2023-03-03T09:37:26;102251.88;;;21.23;43.61
62617;BME280;62539;51.190;6.808;2023-03-03T09:39:57;102264.13;;;21.27;44.04
62617;BME280;62539;51.190;6.808;2023-03-03T09:45:21;102260.56;;;21.30;44.01
62617;BME280;62539;51.190;6.808;2023-03-03T09:57:04;102264.03;;;21.32;44.48
62617;BME280;62539;51.190;6.808;2023-03-03T10:05:57;102268.22;;;21.41;44.70
62617;BME280;62539;51.190;6.808;2023-03-03T10:17:51;102278.47;;;21.55;44.61
62617;BME280;62539;51.190;6.808;2023-03-03T10:20:45;102273.94;;;21.60;44.46
62617;BME280;62539;51.190;6.808;2023-03-03T10:26:20;102268.03;;;21.88;43.80
62617;BME280;62539;51.190;6.808;2023-03-03T10:44:21;102265.72;;;22.45;42.59
62617;BME280;62539;51.190;6.808;2023-03-03T10:47:13;102266.47;;;22.49;42.68
62617;BME280;62539;51.190;6.808;2023-03-03T10:59:23;102272.56;;;22.52;42.11
62617;BME280;62539;51.190;6.808;2023-03-03T11:02:20;102282.25;;;22.52;41.85
62617;BME280;62539;51.190;6.808;2023-03-03T11:07:51;102283.22;;;22.49;41.97
62617;BME280;62539;51.190;6.808;2023-03-03T11:10:32;102277.94;;;22.49;41.97
62617;BME280;62539;51.190;6.808;2023-03-03T11:13:19;102281.41;;;22.51;42.14
62617;BME280;62539;51.190;6.808;2023-03-03T11:18:54;102275.94;;;22.57;42.10
62617;BME280;62539;51.190;6.808;2023-03-03T11:24:36;102272.31;;;22.61;41.63
62617;BME280;62539;51.190;6.808;2023-03-03T11:33:09;102271.97;;;22.74;42.03
62617;BME280;62539;51.190;6.808;2023-03-03T11:35:59;102277.06;;;22.80;42.14
62617;BME280;62539;51.190;6.808;2023-03-03T11:39:01;102270.63;;;22.89;41.88
62617;BME280;62539;51.190;6.808;2023-03-03T11:41:58;102273.06;;;22.97;41.73
62617;BME280;62539;51.190;6.808;2023-03-03T11:44:46;102266.72;;;23.02;41.82
62617;BME280;62539;51.190;6.808;2023-03-03T11:47:21;102258.75;;;23.04;41.74
62617;BME280;62539;51.190;6.808;2023-03-03T11:50:00;102254.31;;;23.04;41.58
62617;BME280;62539;51.190;6.808;2023-03-03T11:52:40;102263.06;;;23.07;41.26
62617;BME280;62539;51.190;6.808;2023-03-03T11:55:19;102258.56;;;23.10;41.40
62617;BME280;62539;51.190;6.808;2023-03-03T11:58:07;102252.19;;;23.16;41.25
62617;BME280;62539;51.190;6.808;2023-03-03T12:06:01;102246.53;;;22.98;41.85
62617;BME280;62539;51.190;6.808;2023-03-03T12:14:30;102244.72;;;22.70;42.51
62617;BME280;62539;51.190;6.808;2023-03-03T12:17:00;102240.41;;;22.66;42.55
62617;BME280;62539;51.190;6.808;2023-03-03T12:22:40;102238.91;;;22.57;42.95
62617;BME280;62539;51.190;6.808;2023-03-03T12:25:34;102224.97;;;22.52;42.89
62617;BME280;62539;51.190;6.808;2023-03-03T12:30:46;102226.81;;;22.49;42.86
62617;BME280;62539;51.190;6.808;2023-03-03T12:33:51;102225.13;;;22.46;43.37
62617;BME280;62539;51.190;6.808;2023-03-03T12:36:42;102226.88;;;22.47;43.25
62617;BME280;62539;51.190;6.808;2023-03-03T12:42:42;102218.84;;;22.50;43.69
62617;BME280;62539;51.190;6.808;2023-03-03T12:48:16;102223.91;;;22.58;43.44
62617;BME280;62539;51.190;6.808;2023-03-03T12:50:56;102222.06;;;22.61;42.79
62617;BME280;62539;51.190;6.808;2023-03-03T12:53:49;102222.00;;;22.63;42.55
62617;BME280;62539;51.190;6.808;2023-03-03T12:56:37;102223.78;;;22.63;42.51
62617;BME280;62539;51.190;6.808;2023-03-03T12:59:33;102218.59;;;22.59;42.58
62617;BME280;62539;51.190;6.808;2023-03-03T13:08:19;102227.25;;;22.65;42.90
62617;BME280;62539;51.190;6.808;2023-03-03T13:13:49;102219.22;;;22.68;42.97
62617;BME280;62539;51.190;6.808;2023-03-03T13:16:36;102213.94;;;22.68;43.00
62617;BME280;62539;51.190;6.808;2023-03-03T13:19:11;102223.59;;;22.69;42.76
62617;BME280;62539;51.190;6.808;2023-03-03T13:24:57;102220.88;;;22.72;42.86
62617;BME280;62539;51.190;6.808;2023-03-03T13:27:30;102213.59;;;22.80;42.47
62617;BME280;62539;51.190;6.808;2023-03-03T13:30:22;102218.31;;;22.99;42.01
62617;BME280;62539;51.190;6.808;2023-03-03T13:33:13;102214.75;;;23.30;41.59
62617;BME280;62539;51.190;6.808;2023-03-03T13:38:45;102211.13;;;23.86;40.85
62617;BME280;62539;51.190;6.808;2023-03-03T13:41:28;102209.81;;;23.98;40.45
62617;BME280;62539;51.190;6.808;2023-03-03T13:44:04;102211.34;;;24.05;40.71
62617;BME280;62539;51.190;6.808;2023-03-03T13:52:27;102210.56;;;24.03;40.44
62617;BME280;62539;51.190;6.808;2023-03-03T13:57:47;102209.91;;;23.95;40.91
62617;BME280;62539;51.190;6.808;2023-03-03T14:06:24;102202.47;;;23.81;39.91
62617;BME280;62539;51.190;6.808;2023-03-03T14:15:40;102202.22;;;23.62;40.03
62617;BME280;62539;51.190;6.808;2023-03-03T14:18:52;102195.63;;;23.74;40.23
62617;BME280;62539;51.190;6.808;2023-03-03T14:21:17;102197.94;;;23.85;40.55
62617;BME280;62539;51.190;6.808;2023-03-03T14:23:53;102193.28;;;24.17;39.91
62617;BME280;62539;51.190;6.808;2023-03-03T14:26:28;102193.53;;;24.34;40.07
62617;BME280;62539;51.190;6.808;2023-03-03T14:29:13;102177.63;;;24.58;39.62
62617;BME280;62539;51.190;6.808;2023-03-03T14:31:45;102179.13;;;24.65;39.28
62617;BME280;62539;51.190;6.808;2023-03-03T14:36:38;102178.63;;;24.79;36.33
62617;BME280;62539;51.190;6.808;2023-03-03T14:39:40;102170.91;;;24.73;36.59
62617;BME280;62539;51.190;6.808;2023-03-03T14:42:13;102171.91;;;24.69;36.86
62617;BME280;62539;51.190;6.808;2023-03-03T14:44:55;102164.13;;;24.64;37.04
62617;BME280;62539;51.190;6.808;2023-03-03T14:47:24;102163.19;;;24.65;37.16
62617;BME280;62539;51.190;6.808;2023-03-03T14:49:52;102157.44;;;24.78;36.76
62617;BME280;62539;51.190;6.808;2023-03-03T14:52:28;102158.44;;;24.98;36.89
62617;BME280;62539;51.190;6.808;2023-03-03T14:55:00;102155.94;;;25.17;36.65
62617;BME280;62539;51.190;6.808;2023-03-03T15:08:07;102148.09;;;25.77;35.57
62617;BME280;62539;51.190;6.808;2023-03-03T15:10:35;102140.50;;;25.89;35.17
62617;BME280;62539;51.190;6.808;2023-03-03T15:18:27;102148.47;;;26.09;34.94
62617;BME280;62539;51.190;6.808;2023-03-03T15:23:50;102145.50;;;26.17;35.05
62617;BME280;62539;51.190;6.808;2023-03-03T15:26:25;102139.16;;;26.20;34.89
62617;BME280;62539;51.190;6.808;2023-03-03T15:29:03;102134.09;;;26.13;35.13
62617;BME280;62539;51.190;6.808;2023-03-03T15:46:08;102126.00;;;25.96;34.85
62617;BME280;62539;51.190;6.808;2023-03-03T15:48:59;102126.00;;;25.96;35.55
62617;BME280;62539;51.190;6.808;2023-03-03T15:52:07;102126.75;;;26.00;35.67
62617;BME280;62539;51.190;6.808;2023-03-03T15:55:04;102122.50;;;25.95;35.61
62617;BME280;62539;51.190;6.808;2023-03-03T15:58:00;102115.00;;;25.85;36.35
62617;BME280;62539;51.190;6.808;2023-03-03T16:04:03;102118.72;;;25.60;36.27
62617;BME280;62539;51.190;6.808;2023-03-03T16:07:03;102119.38;;;25.44;36.82
62617;BME280;62539;51.190;6.808;2023-03-03T16:09:51;102118.78;;;25.37;36.95
62617;BME280;62539;51.190;6.808;2023-03-03T16:18:18;102114.88;;;25.03;37.27
62617;BME280;62539;51.190;6.808;2023-03-03T16:23:48;102120.97;;;24.83;37.47
62617;BME280;62539;51.190;6.808;2023-03-03T16:26:35;102114.41;;;24.70;37.33
62617;BME280;62539;51.190;6.808;2023-03-03T16:32:36;102131.34;;;24.43;38.01
62617;BME280;62539;51.190;6.808;2023-03-03T16:35:24;102130.13;;;24.28;38.06
62617;BME280;62539;51.190;6.808;2023-03-03T16:38:02;102124.34;;;24.17;38.71
62617;BME280;62539;51.190;6.808;2023-03-03T16:41:09;102127.63;;;24.00;38.96
62617;BME280;62539;51.190;6.808;2023-03-03T16:44:03;102127.16;;;23.87;39.61